Flight Track Log - Related Links

Times and Time Zones

All times are in EDT time to prevent confusion due to time zone crossing. See the EJA396 flight status page for this flight to view local times or setup timezone preferences in your user account.

Time Position Orientation Groundspeed Altitude Reporting Facility
EDT Latitude Longitude Course Direction KTS MPH feet Rate Location/Type
Wed 12:35:00 PM 43.8494 -69.7937 59° Northeast  Level FlightAware Approximate
Wed 12:36:00 PM 43.8933 -69.6925 59° Northeast  Level FlightAware Approximate
Wed 12:37:00 PM 43.9371 -69.5910 60° Northeast  Level FlightAware Approximate
Wed 12:38:00 PM 43.9800 -69.4886 60° Northeast  Level FlightAware Approximate
Wed 12:39:00 PM 44.0227 -69.3861 60° Northeast  Level FlightAware Approximate
Wed 12:40:00 PM 44.0654 -69.2835 60° Northeast  Level FlightAware Approximate
Wed 12:41:00 PM 44.1078 -69.1806 61° Northeast  Level FlightAware Approximate
Wed 12:42:00 PM 44.1493 -69.0769 61° Northeast  Level FlightAware Approximate
Wed 12:43:00 PM 44.1891 -68.9718 63° Northeast  Level FlightAware Approximate
Wed 12:44:00 PM 44.2276 -68.8658 63° Northeast  Level FlightAware Approximate
Wed 12:45:00 PM 44.2699 -68.7625 60° Northeast  Level FlightAware Approximate
Wed 12:46:00 PM 44.3127 -68.6596 60° Northeast  Level FlightAware Approximate
Wed 12:47:00 PM 44.3581 -68.5629 47° Northeast  Level FlightAware Approximate
Wed 12:48:00 PM 44.3974 -68.4579 65° Northeast  Level FlightAware Approximate
Wed 12:49:00 PM 44.4333 -68.3500 65° Northeast  Level FlightAware Approximate
Wed 12:50:00 PM 44.4498 -68.3616 65° Northeast  Level Estimated
Wed 12:51:00 PM 44.4498 -68.3616 65° Northeast  Level Estimated
Wed 12:52:00 PM 44.4498 -68.3616 65° Northeast  Level Estimated
Wed 12:53:00 PM 44.4498 -68.3616 65° Northeast  Level Estimated
Wed 12:54:00 PM 44.4498 -68.3616 65° Northeast  Level Estimated
Wed 12:55:00 PM 44.4498 -68.3616 65° Northeast  Level Estimated
Wed 12:56:00 PM 44.4498 -68.3616 65° Northeast  Level Estimated
Wed 12:57:00 PM 44.4498 -68.3616 65° Northeast  Level Estimated
Wed 12:58:00 PM 44.4498 -68.3616 65° Northeast  Level Estimated

Login

Don't have an account? Register now (free) for customized features, flight alerts, and more!